sensor_id;sensor_type;location;lat;lon;timestamp;P1;durP1;ratioP1;P2;durP2;ratioP2
12768;SDS011;6448;48.916;8.990;2024-03-06T00:00:14;2.50;;;2.30;;
12768;SDS011;6448;48.916;8.990;2024-03-06T00:01:16;2.42;;;2.00;;
12768;SDS011;6448;48.916;8.990;2024-03-06T00:02:17;2.03;;;1.90;;
12768;SDS011;6448;48.916;8.990;2024-03-06T00:03:18;2.25;;;2.05;;
12768;SDS011;6448;48.916;8.990;2024-03-06T00:04:20;2.05;;;1.85;;
12768;SDS011;6448;48.916;8.990;2024-03-06T00:05:22;1.80;;;1.70;;
12768;SDS011;6448;48.916;8.990;2024-03-06T00:06:23;2.40;;;1.90;;
12768;SDS011;6448;48.916;8.990;2024-03-06T00:07:25;1.80;;;1.70;;
12768;SDS011;6448;48.916;8.990;2024-03-06T00:08:26;2.15;;;1.98;;
12768;SDS011;6448;48.916;8.990;2024-03-06T00:09:29;2.15;;;1.95;;
12768;SDS011;6448;48.916;8.990;2024-03-06T00:10:29;2.10;;;1.90;;
12768;SDS011;6448;48.916;8.990;2024-03-06T00:11:31;1.90;;;1.70;;
12768;SDS011;6448;48.916;8.990;2024-03-06T00:12:32;2.10;;;2.00;;
12768;SDS011;6448;48.916;8.990;2024-03-06T00:13:34;1.90;;;1.80;;
12768;SDS011;6448;48.916;8.990;2024-03-06T00:14:35;1.95;;;1.85;;
12768;SDS011;6448;48.916;8.990;2024-03-06T00:15:36;2.10;;;1.90;;
12768;SDS011;6448;48.916;8.990;2024-03-06T00:16:38;1.95;;;1.85;;
12768;SDS011;6448;48.916;8.990;2024-03-06T00:17:39;1.90;;;1.80;;
12768;SDS011;6448;48.916;8.990;2024-03-06T00:18:39;1.70;;;1.60;;
12768;SDS011;6448;48.916;8.990;2024-03-06T00:19:42;1.80;;;1.70;;
12768;SDS011;6448;48.916;8.990;2024-03-06T00:20:43;1.65;;;1.55;;
12768;SDS011;6448;48.916;8.990;2024-03-06T00:21:45;1.80;;;1.70;;
12768;SDS011;6448;48.916;8.990;2024-03-06T00:22:46;2.10;;;1.90;;
12768;SDS011;6448;48.916;8.990;2024-03-06T00:23:46;1.88;;;1.75;;
12768;SDS011;6448;48.916;8.990;2024-03-06T00:24:48;2.03;;;1.90;;
12768;SDS011;6448;48.916;8.990;2024-03-06T00:25:49;2.05;;;1.85;;
12768;SDS011;6448;48.916;8.990;2024-03-06T00:26:51;2.00;;;1.80;;
12768;SDS011;6448;48.916;8.990;2024-03-06T00:27:51;2.10;;;1.90;;
12768;SDS011;6448;48.916;8.990;2024-03-06T00:28:54;2.35;;;2.13;;
12768;SDS011;6448;48.916;8.990;2024-03-06T00:29:55;2.45;;;2.25;;
12768;SDS011;6448;48.916;8.990;2024-03-06T00:30:57;2.63;;;2.20;;
12768;SDS011;6448;48.916;8.990;2024-03-06T00:31:58;2.72;;;2.33;;
12768;SDS011;6448;48.916;8.990;2024-03-06T00:32:58;2.70;;;2.28;;
12768;SDS011;6448;48.916;8.990;2024-03-06T00:34:00;2.67;;;2.47;;
12768;SDS011;6448;48.916;8.990;2024-03-06T00:35:03;3.20;;;2.70;;
12768;SDS011;6448;48.916;8.990;2024-03-06T00:36:05;2.90;;;2.50;;
12768;SDS011;6448;48.916;8.990;2024-03-06T00:37:06;2.50;;;2.27;;
12768;SDS011;6448;48.916;8.990;2024-03-06T00:38:08;2.60;;;2.40;;
12768;SDS011;6448;48.916;8.990;2024-03-06T00:39:09;2.40;;;2.20;;
12768;SDS011;6448;48.916;8.990;2024-03-06T00:40:11;2.50;;;2.30;;
12768;SDS011;6448;48.916;8.990;2024-03-06T00:41:13;2.30;;;2.10;;
12768;SDS011;6448;48.916;8.990;2024-03-06T00:42:14;2.55;;;2.28;;
12768;SDS011;6448;48.916;8.990;2024-03-06T00:43:15;2.30;;;2.10;;
12768;SDS011;6448;48.916;8.990;2024-03-06T00:44:17;2.20;;;2.00;;
12768;SDS011;6448;48.916;8.990;2024-03-06T00:45:18;2.47;;;2.27;;
12768;SDS011;6448;48.916;8.990;2024-03-06T00:46:19;2.57;;;2.37;;
12768;SDS011;6448;48.916;8.990;2024-03-06T00:47:20;2.50;;;2.30;;
12768;SDS011;6448;48.916;8.990;2024-03-06T00:48:22;2.45;;;2.25;;
12768;SDS011;6448;48.916;8.990;2024-03-06T00:49:23;2.70;;;2.50;;
12768;SDS011;6448;48.916;8.990;2024-03-06T00:50:26;2.55;;;2.35;;
12768;SDS011;6448;48.916;8.990;2024-03-06T00:51:26;2.35;;;2.15;;
12768;SDS011;6448;48.916;8.990;2024-03-06T00:52:28;2.67;;;2.47;;
12768;SDS011;6448;48.916;8.990;2024-03-06T00:53:29;2.30;;;2.10;;
12768;SDS011;6448;48.916;8.990;2024-03-06T00:54:30;2.80;;;2.30;;
12768;SDS011;6448;48.916;8.990;2024-03-06T00:55:32;2.80;;;2.60;;
12768;SDS011;6448;48.916;8.990;2024-03-06T00:56:36;2.60;;;2.40;;
12768;SDS011;6448;48.916;8.990;2024-03-06T00:57:38;2.70;;;2.50;;
12768;SDS011;6448;48.916;8.990;2024-03-06T00:58:39;2.40;;;2.20;;
12768;SDS011;6448;48.916;8.990;2024-03-06T00:59:41;2.50;;;2.30;;
12768;SDS011;6448;48.916;8.990;2024-03-06T01:00:42;2.50;;;2.30;;
12768;SDS011;6448;48.916;8.990;2024-03-06T01:01:44;2.53;;;2.33;;
12768;SDS011;6448;48.916;8.990;2024-03-06T01:02:44;2.53;;;2.33;;
12768;SDS011;6448;48.916;8.990;2024-03-06T01:03:46;3.00;;;2.33;;
12768;SDS011;6448;48.916;8.990;2024-03-06T01:04:47;2.80;;;2.60;;
12768;SDS011;6448;48.916;8.990;2024-03-06T01:05:50;2.60;;;2.40;;
12768;SDS011;6448;48.916;8.990;2024-03-06T01:06:52;2.85;;;2.65;;
12768;SDS011;6448;48.916;8.990;2024-03-06T01:07:54;2.67;;;2.47;;
12768;SDS011;6448;48.916;8.990;2024-03-06T01:08:56;2.70;;;2.50;;
12768;SDS011;6448;48.916;8.990;2024-03-06T01:09:58;2.38;;;2.25;;
12768;SDS011;6448;48.916;8.990;2024-03-06T01:10:59;2.75;;;2.55;;
12768;SDS011;6448;48.916;8.990;2024-03-06T01:12:01;2.70;;;2.50;;
12768;SDS011;6448;48.916;8.990;2024-03-06T01:13:02;2.20;;;2.10;;
12768;SDS011;6448;48.916;8.990;2024-03-06T01:14:04;2.70;;;2.50;;
12768;SDS011;6448;48.916;8.990;2024-03-06T01:15:05;2.50;;;2.30;;
12768;SDS011;6448;48.916;8.990;2024-03-06T01:16:07;2.53;;;2.33;;
12768;SDS011;6448;48.916;8.990;2024-03-06T01:17:08;2.40;;;2.20;;
12768;SDS011;6448;48.916;8.990;2024-03-06T01:18:10;2.40;;;2.20;;
12768;SDS011;6448;48.916;8.990;2024-03-06T01:19:11;2.60;;;2.40;;
12768;SDS011;6448;48.916;8.990;2024-03-06T01:20:12;3.00;;;2.65;;
12768;SDS011;6448;48.916;8.990;2024-03-06T01:21:15;2.50;;;2.30;;
12768;SDS011;6448;48.916;8.990;2024-03-06T01:22:16;2.50;;;2.30;;
12768;SDS011;6448;48.916;8.990;2024-03-06T01:23:18;2.55;;;2.35;;
12768;SDS011;6448;48.916;8.990;2024-03-06T01:24:19;2.55;;;2.35;;
12768;SDS011;6448;48.916;8.990;2024-03-06T01:25:20;2.60;;;2.40;;
12768;SDS011;6448;48.916;8.990;2024-03-06T01:26:21;2.47;;;2.28;;
12768;SDS011;6448;48.916;8.990;2024-03-06T01:27:23;2.30;;;2.10;;
12768;SDS011;6448;48.916;8.990;2024-03-06T01:28:23;2.38;;;2.17;;
12768;SDS011;6448;48.916;8.990;2024-03-06T01:29:26;2.70;;;2.20;;
12768;SDS011;6448;48.916;8.990;2024-03-06T01:30:26;2.60;;;2.10;;
12768;SDS011;6448;48.916;8.990;2024-03-06T01:31:27;2.40;;;2.20;;
12768;SDS011;6448;48.916;8.990;2024-03-06T01:32:29;2.40;;;2.20;;
12768;SDS011;6448;48.916;8.990;2024-03-06T01:33:30;2.88;;;2.33;;
12768;SDS011;6448;48.916;8.990;2024-03-06T01:34:32;2.10;;;1.90;;
12768;SDS011;6448;48.916;8.990;2024-03-06T01:35:32;2.20;;;2.00;;
12768;SDS011;6448;48.916;8.990;2024-03-06T01:36:35;2.30;;;2.10;;
12768;SDS011;6448;48.916;8.990;2024-03-06T01:37:36;2.35;;;2.15;;
12768;SDS011;6448;48.916;8.990;2024-03-06T01:38:37;2.30;;;2.10;;
12768;SDS011;6448;48.916;8.990;2024-03-06T01:39:39;2.38;;;2.17;;
12768;SDS011;6448;48.916;8.990;2024-03-06T01:40:42;2.40;;;2.20;;
12768;SDS011;6448;48.916;8.990;2024-03-06T01:41:44;2.43;;;2.23;;
12768;SDS011;6448;48.916;8.990;2024-03-06T01:42:46;2.47;;;2.27;;
12768;SDS011;6448;48.916;8.990;2024-03-06T01:43:49;2.60;;;2.40;;
12768;SDS011;6448;48.916;8.990;2024-03-06T01:44:50;2.40;;;2.20;;
12768;SDS011;6448;48.916;8.990;2024-03-06T01:45:51;2.50;;;2.30;;
12768;SDS011;6448;48.916;8.990;2024-03-06T01:46:53;2.70;;;2.50;;
12768;SDS011;6448;48.916;8.990;2024-03-06T01:47:54;2.30;;;2.10;;
12768;SDS011;6448;48.916;8.990;2024-03-06T01:48:55;2.40;;;2.20;;
12768;SDS011;6448;48.916;8.990;2024-03-06T01:49:57;2.42;;;2.22;;
12768;SDS011;6448;48.916;8.990;2024-03-06T01:50:59;2.25;;;2.05;;
12768;SDS011;6448;48.916;8.990;2024-03-06T01:52:06;2.30;;;2.10;;
12768;SDS011;6448;48.916;8.990;2024-03-06T01:53:09;2.50;;;2.30;;
12768;SDS011;6448;48.916;8.990;2024-03-06T01:54:11;2.58;;;2.38;;
12768;SDS011;6448;48.916;8.990;2024-03-06T01:55:12;2.60;;;2.40;;
12768;SDS011;6448;48.916;8.990;2024-03-06T01:56:15;3.30;;;2.45;;
12768;SDS011;6448;48.916;8.990;2024-03-06T01:57:17;2.60;;;2.40;;
12768;SDS011;6448;48.916;8.990;2024-03-06T01:58:19;2.30;;;2.10;;
12768;SDS011;6448;48.916;8.990;2024-03-06T01:59:22;2.40;;;2.20;;
12768;SDS011;6448;48.916;8.990;2024-03-06T02:00:25;2.35;;;2.15;;
12768;SDS011;6448;48.916;8.990;2024-03-06T02:01:28;2.42;;;2.20;;
12768;SDS011;6448;48.916;8.990;2024-03-06T02:02:29;2.40;;;2.20;;
12768;SDS011;6448;48.916;8.990;2024-03-06T02:03:31;2.60;;;2.40;;
12768;SDS011;6448;48.916;8.990;2024-03-06T02:04:33;2.80;;;2.50;;
12768;SDS011;6448;48.916;8.990;2024-03-06T02:05:35;2.30;;;2.10;;
12768;SDS011;6448;48.916;8.990;2024-03-06T02:06:36;2.28;;;2.08;;
12768;SDS011;6448;48.916;8.990;2024-03-06T02:07:41;2.30;;;2.10;;
12768;SDS011;6448;48.916;8.990;2024-03-06T02:08:44;2.17;;;2.00;;
12768;SDS011;6448;48.916;8.990;2024-03-06T02:09:46;2.40;;;2.13;;
12768;SDS011;6448;48.916;8.990;2024-03-06T02:10:48;2.20;;;2.00;;
12768;SDS011;6448;48.916;8.990;2024-03-06T02:11:50;2.20;;;2.00;;
12768;SDS011;6448;48.916;8.990;2024-03-06T02:12:51;2.42;;;2.20;;
12768;SDS011;6448;48.916;8.990;2024-03-06T02:13:53;2.30;;;2.05;;
12768;SDS011;6448;48.916;8.990;2024-03-06T02:14:54;2.30;;;2.10;;
12768;SDS011;6448;48.916;8.990;2024-03-06T02:15:55;2.65;;;2.20;;
12768;SDS011;6448;48.916;8.990;2024-03-06T02:16:57;2.30;;;2.10;;
12768;SDS011;6448;48.916;8.990;2024-03-06T02:17:58;2.10;;;1.90;;
12768;SDS011;6448;48.916;8.990;2024-03-06T02:19:05;2.47;;;2.10;;
12768;SDS011;6448;48.916;8.990;2024-03-06T02:20:06;3.08;;;2.00;;
12768;SDS011;6448;48.916;8.990;2024-03-06T02:21:13;2.10;;;1.90;;
12768;SDS011;6448;48.916;8.990;2024-03-06T02:22:14;2.30;;;2.10;;
12768;SDS011;6448;48.916;8.990;2024-03-06T02:23:16;2.00;;;1.90;;
12768;SDS011;6448;48.916;8.990;2024-03-06T02:24:18;2.20;;;2.00;;
12768;SDS011;6448;48.916;8.990;2024-03-06T02:25:19;2.33;;;2.13;;
12768;SDS011;6448;48.916;8.990;2024-03-06T02:26:21;2.05;;;1.85;;
12768;SDS011;6448;48.916;8.990;2024-03-06T02:27:22;2.28;;;2.08;;
12768;SDS011;6448;48.916;8.990;2024-03-06T02:28:23;2.20;;;2.00;;
12768;SDS011;6448;48.916;8.990;2024-03-06T02:29:25;2.20;;;2.00;;
12768;SDS011;6448;48.916;8.990;2024-03-06T02:30:26;2.03;;;1.83;;
12768;SDS011;6448;48.916;8.990;2024-03-06T02:31:28;1.90;;;1.80;;
12768;SDS011;6448;48.916;8.990;2024-03-06T02:32:28;2.00;;;1.90;;
12768;SDS011;6448;48.916;8.990;2024-03-06T02:33:30;1.90;;;1.80;;
12768;SDS011;6448;48.916;8.990;2024-03-06T02:34:31;2.00;;;1.80;;
12768;SDS011;6448;48.916;8.990;2024-03-06T02:35:33;2.17;;;1.90;;
12768;SDS011;6448;48.916;8.990;2024-03-06T02:36:36;2.03;;;1.85;;
12768;SDS011;6448;48.916;8.990;2024-03-06T02:37:38;2.05;;;1.90;;
12768;SDS011;6448;48.916;8.990;2024-03-06T02:38:38;2.10;;;1.90;;
12768;SDS011;6448;48.916;8.990;2024-03-06T02:39:40;1.97;;;1.87;;
12768;SDS011;6448;48.916;8.990;2024-03-06T02:40:42;1.90;;;1.80;;
12768;SDS011;6448;48.916;8.990;2024-03-06T02:41:44;2.20;;;2.00;;
12768;SDS011;6448;48.916;8.990;2024-03-06T02:42:45;2.28;;;2.08;;
12768;SDS011;6448;48.916;8.990;2024-03-06T02:43:46;2.45;;;1.90;;
12768;SDS011;6448;48.916;8.990;2024-03-06T02:44:47;1.90;;;1.80;;
12768;SDS011;6448;48.916;8.990;2024-03-06T02:45:52;2.30;;;2.10;;
12768;SDS011;6448;48.916;8.990;2024-03-06T02:46:52;2.20;;;2.00;;
12768;SDS011;6448;48.916;8.990;2024-03-06T02:47:54;2.30;;;2.10;;
12768;SDS011;6448;48.916;8.990;2024-03-06T02:48:55;2.00;;;1.90;;
12768;SDS011;6448;48.916;8.990;2024-03-06T02:49:57;2.17;;;2.08;;
12768;SDS011;6448;48.916;8.990;2024-03-06T02:50:58;2.13;;;1.97;;
12768;SDS011;6448;48.916;8.990;2024-03-06T02:52:02;2.40;;;2.20;;
12768;SDS011;6448;48.916;8.990;2024-03-06T02:53:03;2.00;;;1.88;;
12768;SDS011;6448;48.916;8.990;2024-03-06T02:54:05;2.33;;;2.13;;
12768;SDS011;6448;48.916;8.990;2024-03-06T02:55:06;2.33;;;2.13;;
12768;SDS011;6448;48.916;8.990;2024-03-06T02:56:15;2.33;;;2.13;;
12768;SDS011;6448;48.916;8.990;2024-03-06T02:57:16;2.00;;;1.90;;
12768;SDS011;6448;48.916;8.990;2024-03-06T02:58:17;2.55;;;2.35;;
12768;SDS011;6448;48.916;8.990;2024-03-06T02:59:18;2.20;;;2.00;;
12768;SDS011;6448;48.916;8.990;2024-03-06T03:00:20;2.00;;;1.80;;
12768;SDS011;6448;48.916;8.990;2024-03-06T03:01:21;2.22;;;2.03;;
12768;SDS011;6448;48.916;8.990;2024-03-06T03:02:23;2.03;;;1.83;;
12768;SDS011;6448;48.916;8.990;2024-03-06T03:03:24;2.30;;;2.10;;
12768;SDS011;6448;48.916;8.990;2024-03-06T03:04:26;2.00;;;1.80;;
12768;SDS011;6448;48.916;8.990;2024-03-06T03:05:27;2.13;;;1.90;;
12768;SDS011;6448;48.916;8.990;2024-03-06T03:06:28;2.27;;;1.90;;
12768;SDS011;6448;48.916;8.990;2024-03-06T03:07:31;1.90;;;1.80;;
12768;SDS011;6448;48.916;8.990;2024-03-06T03:08:32;2.60;;;2.05;;
12768;SDS011;6448;48.916;8.990;2024-03-06T03:09:33;1.90;;;1.80;;
12768;SDS011;6448;48.916;8.990;2024-03-06T03:10:36;1.80;;;1.70;;
12768;SDS011;6448;48.916;8.990;2024-03-06T03:11:37;2.28;;;2.10;;
12768;SDS011;6448;48.916;8.990;2024-03-06T03:12:38;2.08;;;1.98;;
12768;SDS011;6448;48.916;8.990;2024-03-06T03:13:39;2.20;;;2.00;;
12768;SDS011;6448;48.916;8.990;2024-03-06T03:14:40;2.50;;;2.30;;
12768;SDS011;6448;48.916;8.990;2024-03-06T03:15:43;2.47;;;2.28;;
12768;SDS011;6448;48.916;8.990;2024-03-06T03:16:44;2.63;;;2.42;;
12768;SDS011;6448;48.916;8.990;2024-03-06T03:17:45;2.80;;;2.60;;
12768;SDS011;6448;48.916;8.990;2024-03-06T03:18:46;2.83;;;2.58;;
12768;SDS011;6448;48.916;8.990;2024-03-06T03:19:47;2.60;;;2.40;;
12768;SDS011;6448;48.916;8.990;2024-03-06T03:20:49;2.63;;;2.42;;
12768;SDS011;6448;48.916;8.990;2024-03-06T03:21:50;2.80;;;2.40;;
12768;SDS011;6448;48.916;8.990;2024-03-06T03:22:53;3.30;;;2.37;;
12768;SDS011;6448;48.916;8.990;2024-03-06T03:23:54;2.50;;;2.30;;
12768;SDS011;6448;48.916;8.990;2024-03-06T03:24:56;2.50;;;2.30;;
12768;SDS011;6448;48.916;8.990;2024-03-06T03:25:57;2.45;;;2.25;;
12768;SDS011;6448;48.916;8.990;2024-03-06T03:26:59;2.65;;;2.45;;
12768;SDS011;6448;48.916;8.990;2024-03-06T03:28:01;2.60;;;2.30;;
12768;SDS011;6448;48.916;8.990;2024-03-06T03:29:03;2.30;;;2.10;;
12768;SDS011;6448;48.916;8.990;2024-03-06T03:30:04;2.40;;;2.20;;
12768;SDS011;6448;48.916;8.990;2024-03-06T03:31:09;1.92;;;1.83;;
12768;SDS011;6448;48.916;8.990;2024-03-06T03:32:11;2.10;;;2.00;;
12768;SDS011;6448;48.916;8.990;2024-03-06T03:33:14;2.05;;;1.90;;
12768;SDS011;6448;48.916;8.990;2024-03-06T03:34:16;2.20;;;2.00;;
12768;SDS011;6448;48.916;8.990;2024-03-06T03:35:17;2.83;;;1.93;;
12768;SDS011;6448;48.916;8.990;2024-03-06T03:36:21;2.20;;;2.00;;
12768;SDS011;6448;48.916;8.990;2024-03-06T03:37:21;2.20;;;2.00;;
12768;SDS011;6448;48.916;8.990;2024-03-06T03:38:25;2.35;;;2.15;;
12768;SDS011;6448;48.916;8.990;2024-03-06T03:39:25;2.15;;;1.95;;
12768;SDS011;6448;48.916;8.990;2024-03-06T03:40:27;2.20;;;2.00;;
12768;SDS011;6448;48.916;8.990;2024-03-06T03:41:28;2.30;;;2.10;;
12768;SDS011;6448;48.916;8.990;2024-03-06T03:42:30;2.00;;;1.90;;
12768;SDS011;6448;48.916;8.990;2024-03-06T03:43:30;2.13;;;1.92;;
12768;SDS011;6448;48.916;8.990;2024-03-06T03:44:33;2.05;;;1.85;;
12768;SDS011;6448;48.916;8.990;2024-03-06T03:45:34;2.07;;;1.87;;
12768;SDS011;6448;48.916;8.990;2024-03-06T03:46:36;2.00;;;1.80;;
12768;SDS011;6448;48.916;8.990;2024-03-06T03:47:37;1.63;;;1.52;;
12768;SDS011;6448;48.916;8.990;2024-03-06T03:48:39;1.83;;;1.70;;
12768;SDS011;6448;48.916;8.990;2024-03-06T03:49:40;1.70;;;1.60;;
12768;SDS011;6448;48.916;8.990;2024-03-06T03:50:42;2.17;;;1.75;;
12768;SDS011;6448;48.916;8.990;2024-03-06T03:51:43;1.70;;;1.60;;
12768;SDS011;6448;48.916;8.990;2024-03-06T03:52:45;2.30;;;1.80;;
12768;SDS011;6448;48.916;8.990;2024-03-06T03:53:47;1.60;;;1.50;;
12768;SDS011;6448;48.916;8.990;2024-03-06T03:54:50;1.60;;;1.50;;
12768;SDS011;6448;48.916;8.990;2024-03-06T03:55:51;1.88;;;1.67;;
12768;SDS011;6448;48.916;8.990;2024-03-06T03:56:53;1.80;;;1.70;;
12768;SDS011;6448;48.916;8.990;2024-03-06T03:57:54;1.60;;;1.50;;
12768;SDS011;6448;48.916;8.990;2024-03-06T03:58:55;1.83;;;1.60;;
12768;SDS011;6448;48.916;8.990;2024-03-06T03:59:57;1.90;;;1.80;;
12768;SDS011;6448;48.916;8.990;2024-03-06T04:00:58;1.90;;;1.80;;
12768;SDS011;6448;48.916;8.990;2024-03-06T04:02:00;1.63;;;1.52;;
12768;SDS011;6448;48.916;8.990;2024-03-06T04:03:00;1.85;;;1.70;;
12768;SDS011;6448;48.916;8.990;2024-03-06T04:04:02;1.85;;;1.75;;
12768;SDS011;6448;48.916;8.990;2024-03-06T04:05:03;1.83;;;1.73;;
12768;SDS011;6448;48.916;8.990;2024-03-06T04:06:05;2.55;;;2.05;;
12768;SDS011;6448;48.916;8.990;2024-03-06T04:07:07;2.30;;;2.10;;
12768;SDS011;6448;48.916;8.990;2024-03-06T04:08:08;2.40;;;2.20;;
12768;SDS011;6448;48.916;8.990;2024-03-06T04:09:11;2.50;;;2.10;;
12768;SDS011;6448;48.916;8.990;2024-03-06T04:10:14;2.40;;;2.20;;
12768;SDS011;6448;48.916;8.990;2024-03-06T04:11:16;2.80;;;2.60;;
12768;SDS011;6448;48.916;8.990;2024-03-06T04:12:17;2.53;;;2.33;;
12768;SDS011;6448;48.916;8.990;2024-03-06T04:13:18;2.80;;;2.60;;
12768;SDS011;6448;48.916;8.990;2024-03-06T04:14:21;2.55;;;2.35;;
12768;SDS011;6448;48.916;8.990;2024-03-06T04:15:22;2.92;;;2.38;;
12768;SDS011;6448;48.916;8.990;2024-03-06T04:16:24;2.40;;;2.20;;
12768;SDS011;6448;48.916;8.990;2024-03-06T04:17:24;2.38;;;2.17;;
12768;SDS011;6448;48.916;8.990;2024-03-06T04:18:26;2.50;;;2.30;;
12768;SDS011;6448;48.916;8.990;2024-03-06T04:19:27;2.60;;;2.40;;
12768;SDS011;6448;48.916;8.990;2024-03-06T04:20:28;2.20;;;2.00;;
12768;SDS011;6448;48.916;8.990;2024-03-06T04:21:29;2.00;;;1.90;;
12768;SDS011;6448;48.916;8.990;2024-03-06T04:22:31;2.20;;;2.00;;
12768;SDS011;6448;48.916;8.990;2024-03-06T04:23:32;2.00;;;1.80;;
12768;SDS011;6448;48.916;8.990;2024-03-06T04:24:35;1.98;;;1.88;;
12768;SDS011;6448;48.916;8.990;2024-03-06T04:25:36;2.20;;;2.00;;
12768;SDS011;6448;48.916;8.990;2024-03-06T04:26:39;2.97;;;2.10;;
12768;SDS011;6448;48.916;8.990;2024-03-06T04:27:40;2.80;;;2.58;;
12768;SDS011;6448;48.916;8.990;2024-03-06T04:28:41;2.50;;;2.30;;
12768;SDS011;6448;48.916;8.990;2024-03-06T04:29:42;2.65;;;2.45;;
12768;SDS011;6448;48.916;8.990;2024-03-06T04:30:43;3.45;;;3.15;;
12768;SDS011;6448;48.916;8.990;2024-03-06T04:31:44;3.93;;;3.63;;
12768;SDS011;6448;48.916;8.990;2024-03-06T04:32:45;3.50;;;3.20;;
12768;SDS011;6448;48.916;8.990;2024-03-06T04:33:46;3.20;;;2.90;;
12768;SDS011;6448;48.916;8.990;2024-03-06T04:34:48;2.80;;;2.60;;
12768;SDS011;6448;48.916;8.990;2024-03-06T04:35:49;2.88;;;2.60;;
12768;SDS011;6448;48.916;8.990;2024-03-06T04:36:50;2.70;;;2.50;;
12768;SDS011;6448;48.916;8.990;2024-03-06T04:37:54;2.15;;;2.03;;
12768;SDS011;6448;48.916;8.990;2024-03-06T04:38:55;2.15;;;2.05;;
12768;SDS011;6448;48.916;8.990;2024-03-06T04:39:58;2.08;;;1.95;;
12768;SDS011;6448;48.916;8.990;2024-03-06T04:40:59;2.00;;;1.80;;
12768;SDS011;6448;48.916;8.990;2024-03-06T04:42:01;2.20;;;2.00;;
12768;SDS011;6448;48.916;8.990;2024-03-06T04:43:02;2.15;;;1.90;;
12768;SDS011;6448;48.916;8.990;2024-03-06T04:44:02;2.10;;;1.90;;
12768;SDS011;6448;48.916;8.990;2024-03-06T04:45:08;2.20;;;2.00;;
12768;SDS011;6448;48.916;8.990;2024-03-06T04:46:12;2.00;;;1.80;;
12768;SDS011;6448;48.916;8.990;2024-03-06T04:47:14;2.03;;;1.83;;
12768;SDS011;6448;48.916;8.990;2024-03-06T04:48:15;2.47;;;2.00;;
12768;SDS011;6448;48.916;8.990;2024-03-06T04:49:17;2.30;;;2.10;;
12768;SDS011;6448;48.916;8.990;2024-03-06T04:50:18;2.60;;;2.37;;
12768;SDS011;6448;48.916;8.990;2024-03-06T04:51:19;2.60;;;2.00;;
12768;SDS011;6448;48.916;8.990;2024-03-06T04:52:20;2.10;;;2.00;;
12768;SDS011;6448;48.916;8.990;2024-03-06T04:53:22;2.75;;;2.55;;
12768;SDS011;6448;48.916;8.990;2024-03-06T04:54:23;3.72;;;3.42;;
12768;SDS011;6448;48.916;8.990;2024-03-06T04:55:26;3.90;;;3.60;;
12768;SDS011;6448;48.916;8.990;2024-03-06T04:56:26;3.40;;;3.20;;
12768;SDS011;6448;48.916;8.990;2024-03-06T04:57:28;3.10;;;2.90;;
12768;SDS011;6448;48.916;8.990;2024-03-06T04:58:29;2.90;;;2.70;;
12768;SDS011;6448;48.916;8.990;2024-03-06T04:59:31;2.35;;;2.15;;
12768;SDS011;6448;48.916;8.990;2024-03-06T05:00:32;2.22;;;2.03;;
12768;SDS011;6448;48.916;8.990;2024-03-06T05:01:33;2.60;;;2.40;;
12768;SDS011;6448;48.916;8.990;2024-03-06T05:02:34;2.63;;;2.35;;
12768;SDS011;6448;48.916;8.990;2024-03-06T05:03:37;2.10;;;1.92;;
12768;SDS011;6448;48.916;8.990;2024-03-06T05:04:38;2.13;;;1.98;;
12768;SDS011;6448;48.916;8.990;2024-03-06T05:05:40;2.08;;;1.80;;
12768;SDS011;6448;48.916;8.990;2024-03-06T05:06:40;2.00;;;1.90;;
12768;SDS011;6448;48.916;8.990;2024-03-06T05:07:42;1.85;;;1.75;;
12768;SDS011;6448;48.916;8.990;2024-03-06T05:08:44;1.70;;;1.60;;
12768;SDS011;6448;48.916;8.990;2024-03-06T05:09:45;1.95;;;1.85;;
12768;SDS011;6448;48.916;8.990;2024-03-06T05:10:47;1.97;;;1.80;;
12768;SDS011;6448;48.916;8.990;2024-03-06T05:11:49;1.90;;;1.70;;
12768;SDS011;6448;48.916;8.990;2024-03-06T05:12:50;1.90;;;1.80;;
12768;SDS011;6448;48.916;8.990;2024-03-06T05:13:52;1.90;;;1.80;;
12768;SDS011;6448;48.916;8.990;2024-03-06T05:14:53;1.90;;;1.80;;
12768;SDS011;6448;48.916;8.990;2024-03-06T05:15:56;1.77;;;1.67;;
12768;SDS011;6448;48.916;8.990;2024-03-06T05:16:57;2.07;;;1.87;;
12768;SDS011;6448;48.916;8.990;2024-03-06T05:17:59;2.00;;;1.90;;
12768;SDS011;6448;48.916;8.990;2024-03-06T05:19:00;2.05;;;1.90;;
12768;SDS011;6448;48.916;8.990;2024-03-06T05:20:02;1.92;;;1.83;;
12768;SDS011;6448;48.916;8.990;2024-03-06T05:21:04;2.30;;;2.10;;
12768;SDS011;6448;48.916;8.990;2024-03-06T05:22:04;2.28;;;2.00;;
12768;SDS011;6448;48.916;8.990;2024-03-06T05:23:07;2.00;;;1.80;;
12768;SDS011;6448;48.916;8.990;2024-03-06T05:24:07;2.10;;;1.90;;
12768;SDS011;6448;48.916;8.990;2024-03-06T05:25:09;1.80;;;1.70;;
12768;SDS011;6448;48.916;8.990;2024-03-06T05:26:11;2.20;;;2.00;;
12768;SDS011;6448;48.916;8.990;2024-03-06T05:27:13;2.22;;;2.03;;
12768;SDS011;6448;48.916;8.990;2024-03-06T05:28:17;2.65;;;2.30;;
12768;SDS011;6448;48.916;8.990;2024-03-06T05:29:18;2.30;;;2.10;;
12768;SDS011;6448;48.916;8.990;2024-03-06T05:30:19;2.53;;;2.33;;
12768;SDS011;6448;48.916;8.990;2024-03-06T05:31:20;2.47;;;2.28;;
12768;SDS011;6448;48.916;8.990;2024-03-06T05:32:23;3.05;;;2.78;;
12768;SDS011;6448;48.916;8.990;2024-03-06T05:33:24;3.10;;;2.90;;
12768;SDS011;6448;48.916;8.990;2024-03-06T05:34:26;3.40;;;3.10;;
12768;SDS011;6448;48.916;8.990;2024-03-06T05:35:27;3.30;;;3.00;;
12768;SDS011;6448;48.916;8.990;2024-03-06T05:36:29;3.25;;;2.95;;
12768;SDS011;6448;48.916;8.990;2024-03-06T05:37:30;2.85;;;2.65;;
12768;SDS011;6448;48.916;8.990;2024-03-06T05:38:30;3.05;;;2.85;;
12768;SDS011;6448;48.916;8.990;2024-03-06T05:39:33;3.00;;;2.80;;
12768;SDS011;6448;48.916;8.990;2024-03-06T05:40:34;2.80;;;2.53;;
12768;SDS011;6448;48.916;8.990;2024-03-06T05:41:38;2.30;;;2.10;;
12768;SDS011;6448;48.916;8.990;2024-03-06T05:42:39;2.30;;;2.10;;
12768;SDS011;6448;48.916;8.990;2024-03-06T05:43:42;2.30;;;2.10;;
12768;SDS011;6448;48.916;8.990;2024-03-06T05:44:43;2.22;;;2.10;;
12768;SDS011;6448;48.916;8.990;2024-03-06T05:45:45;2.30;;;2.10;;
12768;SDS011;6448;48.916;8.990;2024-03-06T05:46:46;2.50;;;2.13;;
12768;SDS011;6448;48.916;8.990;2024-03-06T05:47:48;2.33;;;2.10;;
12768;SDS011;6448;48.916;8.990;2024-03-06T05:48:49;2.42;;;2.22;;
12768;SDS011;6448;48.916;8.990;2024-03-06T05:49:51;2.50;;;2.30;;
12768;SDS011;6448;48.916;8.990;2024-03-06T05:50:52;2.30;;;2.10;;
12768;SDS011;6448;48.916;8.990;2024-03-06T05:51:54;2.50;;;2.30;;
12768;SDS011;6448;48.916;8.990;2024-03-06T05:52:57;2.40;;;2.20;;
12768;SDS011;6448;48.916;8.990;2024-03-06T05:53:58;2.90;;;2.60;;
12768;SDS011;6448;48.916;8.990;2024-03-06T05:54:59;2.97;;;2.58;;
12768;SDS011;6448;48.916;8.990;2024-03-06T05:56:01;2.60;;;2.40;;
12768;SDS011;6448;48.916;8.990;2024-03-06T05:57:05;2.53;;;2.33;;
12768;SDS011;6448;48.916;8.990;2024-03-06T05:58:08;2.63;;;2.42;;
12768;SDS011;6448;48.916;8.990;2024-03-06T05:59:09;2.50;;;2.30;;
12768;SDS011;6448;48.916;8.990;2024-03-06T06:00:10;2.50;;;2.30;;
12768;SDS011;6448;48.916;8.990;2024-03-06T06:01:13;2.70;;;2.00;;
12768;SDS011;6448;48.916;8.990;2024-03-06T06:02:15;2.47;;;2.28;;
12768;SDS011;6448;48.916;8.990;2024-03-06T06:03:18;2.27;;;2.07;;
12768;SDS011;6448;48.916;8.990;2024-03-06T06:04:19;1.90;;;1.70;;
12768;SDS011;6448;48.916;8.990;2024-03-06T06:05:20;2.33;;;2.10;;
12768;SDS011;6448;48.916;8.990;2024-03-06T06:06:22;2.20;;;1.90;;
12768;SDS011;6448;48.916;8.990;2024-03-06T06:07:23;2.00;;;1.85;;
12768;SDS011;6448;48.916;8.990;2024-03-06T06:08:25;1.88;;;1.73;;
12768;SDS011;6448;48.916;8.990;2024-03-06T06:09:26;1.90;;;1.80;;
12768;SDS011;6448;48.916;8.990;2024-03-06T06:10:28;2.17;;;1.98;;
12768;SDS011;6448;48.916;8.990;2024-03-06T06:11:28;2.08;;;1.88;;
12768;SDS011;6448;48.916;8.990;2024-03-06T06:12:31;2.42;;;1.92;;
12768;SDS011;6448;48.916;8.990;2024-03-06T06:13:32;1.80;;;1.70;;
12768;SDS011;6448;48.916;8.990;2024-03-06T06:14:34;2.28;;;2.08;;
12768;SDS011;6448;48.916;8.990;2024-03-06T06:15:35;1.90;;;1.80;;
12768;SDS011;6448;48.916;8.990;2024-03-06T06:16:37;1.88;;;1.77;;